Terminal Aerodrome Forecast
Issued by NWS Wilmington, NC

Home | Current Version | Previous Version | Text Only | Print | Product List | Glossary On
Versions: 1 2 3 4 5 6 7 8 9 10 11 12 13 14 15
511
FTUS42 KILM 281512 AAB
TAFILM
TAF AMD
KILM 281512Z 2815/2912 19012G18KT P6SM FEW020 SCT030 BKN040
      TEMPO 2815/2817 BKN015
     FM290200 20008KT P6SM BKN250
      TEMPO 2908/2912 BKN010=

USA.gov is the U.S. government's official web portal to all federal, state and local government web resources and services.